Time;durP1;ratioP1;P1;durP2;ratioP2;P2;SDS_P1;SDS_P2;PMS_P1;PMS_P2;Temp;Humidity;BMP_temperature;BMP_pressure;BME280_temperature;BME280_humidity;BME280_pressure;Samples;Min_cycle;Max_cycle;Signal;HPM_P1;HPM_P2
2022/10/22 00:01:04;;;;;;;7.43;3.70;;;12.60;99.90;;;;;;5039371;28;20075;-81
2022/10/22 00:03:31;;;;;;;8.60;4.20;;;12.50;99.90;;;;;;5046468;28;20048;-82
2022/10/22 00:05:56;;;;;;;6.20;3.58;;;12.50;99.90;;;;;;5049638;28;20048;-81
2022/10/22 00:08:22;;;;;;;9.98;4.50;;;12.50;99.90;;;;;;5031099;28;20045;-81
2022/10/22 00:10:48;;;;;;;6.65;3.72;;;12.40;99.90;;;;;;5046965;28;20072;-81
2022/10/22 00:13:14;;;;;;;7.72;4.40;;;12.40;99.90;;;;;;5041964;28;20049;-81
2022/10/22 00:15:40;;;;;;;7.90;3.95;;;12.40;99.90;;;;;;5060958;28;20055;-81
2022/10/22 00:18:05;;;;;;;7.40;4.40;;;12.40;99.90;;;;;;5028461;28;20049;-81
2022/10/22 00:20:31;;;;;;;8.77;4.07;;;12.30;99.90;;;;;;5049647;28;20056;-81
2022/10/22 00:22:57;;;;;;;9.85;4.13;;;12.30;99.90;;;;;;5047470;28;20136;-81
2022/10/22 00:25:23;;;;;;;7.72;4.05;;;12.20;99.90;;;;;;5043399;28;20033;-81
2022/10/22 00:27:48;;;;;;;6.95;3.60;;;12.10;99.90;;;;;;5043881;28;20049;-82
2022/10/22 00:30:14;;;;;;;6.13;3.67;;;12.10;99.90;;;;;;5048348;28;20049;-81
2022/10/22 00:32:40;;;;;;;9.55;4.07;;;12.10;99.90;;;;;;5041893;28;20492;-81
2022/10/22 00:35:06;;;;;;;11.57;4.53;;;12.00;99.90;;;;;;5030996;28;20045;-81
2022/10/22 00:37:32;;;;;;;12.63;3.85;;;12.10;99.90;;;;;;5034876;28;20503;-82
2022/10/22 00:39:57;;;;;;;10.70;3.85;;;12.10;99.90;;;;;;5044551;28;20082;-81
2022/10/22 00:42:25;;;;;;;6.53;3.92;;;12.10;99.90;;;;;;5034790;28;20062;-81
2022/10/22 00:45:09;;;;;;;9.80;4.45;;;12.00;99.90;;;;;;5042722;28;20052;-82
2022/10/22 00:48:08;;;;;;;9.07;3.42;;;12.00;99.90;;;;;;5027302;28;20042;-81
2022/10/22 00:50:38;;;;;;;8.82;4.70;;;12.00;99.90;;;;;;5047364;28;20049;-81
2022/10/22 00:53:12;;;;;;;8.65;4.68;;;12.00;99.90;;;;;;5049162;28;20041;-81
2022/10/22 00:55:38;;;;;;;16.73;4.45;;;12.00;99.90;;;;;;5041968;28;20109;-81
2022/10/22 00:58:04;;;;;;;7.68;4.10;;;11.90;99.90;;;;;;5041600;28;20049;-81
2022/10/22 01:00:30;;;;;;;9.35;3.80;;;11.90;99.90;;;;;;5054543;28;20060;-81
2022/10/22 01:02:56;;;;;;;10.40;4.13;;;11.90;99.90;;;;;;5042612;28;20060;-81
2022/10/22 01:05:25;;;;;;;11.77;5.25;;;11.90;99.90;;;;;;5041267;28;20033;-81
2022/10/22 01:07:52;;;;;;;7.32;3.90;;;11.90;99.90;;;;;;5019030;28;20396;-81
2022/10/22 01:10:30;;;;;;;11.45;5.40;;;11.90;99.90;;;;;;5046437;28;20078;-81
2022/10/22 01:13:19;;;;;;;8.45;4.38;;;11.90;99.90;;;;;;5041205;28;20052;-81
2022/10/22 01:16:02;;;;;;;8.80;4.20;;;11.90;99.90;;;;;;5063447;28;20050;-81
2022/10/22 01:19:02;;;;;;;10.48;4.47;;;11.90;99.90;;;;;;5042465;28;20053;-81
2022/10/22 01:21:37;;;;;;;6.93;3.75;;;11.90;99.90;;;;;;5046756;28;20056;-81
2022/10/22 01:24:06;;;;;;;7.07;4.10;;;11.80;99.90;;;;;;5034540;28;20567;-82
2022/10/22 01:27:33;;;;;;;7.68;3.92;;;11.80;99.90;;;;;;5044589;28;20045;-82
2022/10/22 01:30:06;;;;;;;10.15;4.18;;;11.70;99.90;;;;;;5037185;28;20064;-82
2022/10/22 01:32:39;;;;;;;10.40;4.78;;;11.70;99.90;;;;;;5024571;28;20047;-82
2022/10/22 01:35:08;;;;;;;10.07;4.72;;;11.60;99.90;;;;;;5045228;28;20037;-81
2022/10/22 01:37:40;;;;;;;8.02;4.85;;;11.60;99.90;;;;;;5031254;28;20083;-82
2022/10/22 01:40:07;;;;;;;12.38;5.32;;;11.60;99.90;;;;;;5041975;28;20053;-82
2022/10/22 01:42:33;;;;;;;9.50;4.78;;;11.70;99.90;;;;;;5038860;28;20041;-82
2022/10/22 01:44:59;;;;;;;12.15;5.60;;;11.70;99.90;;;;;;5040822;28;20045;-81
2022/10/22 01:47:52;;;;;;;10.32;5.55;;;11.70;99.90;;;;;;5045158;28;20064;-81
2022/10/22 01:50:55;;;;;;;7.38;5.13;;;11.70;99.90;;;;;;5042923;28;20638;-82
2022/10/22 01:53:21;;;;;;;10.00;4.88;;;11.70;99.90;;;;;;5042610;28;20053;-81
2022/10/22 01:56:19;;;;;;;11.93;5.28;;;11.70;99.90;;;;;;5041859;28;20052;-81
2022/10/22 01:59:18;;;;;;;10.60;5.25;;;11.70;99.90;;;;;;5049681;28;20493;-81
2022/10/22 02:02:03;;;;;;;9.95;4.70;;;11.80;99.90;;;;;;5042005;28;20692;-81
2022/10/22 02:04:56;;;;;;;8.73;4.45;;;11.70;99.90;;;;;;5050843;28;20106;-81
2022/10/22 02:07:27;;;;;;;9.57;4.97;;;11.70;99.90;;;;;;5041391;28;20049;-82
2022/10/22 02:09:54;;;;;;;10.50;4.65;;;11.60;99.90;;;;;;5033656;28;20037;-81
2022/10/22 02:12:22;;;;;;;10.32;4.68;;;11.60;99.90;;;;;;5044696;28;20132;-81
2022/10/22 02:14:49;;;;;;;10.52;5.68;;;11.60;99.90;;;;;;5041100;28;20201;-81
2022/10/22 02:17:19;;;;;;;14.52;5.32;;;11.70;99.90;;;;;;5043721;28;20088;-82
2022/10/22 02:20:02;;;;;;;10.02;5.95;;;11.70;99.90;;;;;;5028537;28;20068;-81
2022/10/22 02:22:27;;;;;;;;;;;11.80;99.90;;;;;;5052769;28;20080;-81
2022/10/22 02:24:54;;;;;;;8.50;4.70;;;11.80;99.90;;;;;;5045308;28;19921;-81
2022/10/22 02:27:22;;;;;;;15.85;5.82;;;11.70;99.90;;;;;;5018510;28;20116;-81
2022/10/22 02:30:23;;;;;;;11.95;5.60;;;11.70;99.90;;;;;;5050355;28;20041;-81
2022/10/22 02:32:55;;;;;;;13.88;5.60;;;11.70;99.90;;;;;;5046901;28;20546;-81
2022/10/22 02:35:24;;;;;;;11.52;5.47;;;11.60;99.90;;;;;;5040584;28;20036;-82
2022/10/22 02:37:52;;;;;;;9.63;3.97;;;11.60;99.90;;;;;;5040007;28;20045;-81
2022/10/22 02:40:18;;;;;;;9.45;5.57;;;11.60;99.90;;;;;;5040954;28;20081;-81
2022/10/22 02:42:47;;;;;;;9.52;5.03;;;11.60;99.90;;;;;;5040397;28;20052;-83
2022/10/22 02:45:13;;;;;;;7.85;4.90;;;11.50;99.90;;;;;;5039389;28;20530;-82
2022/10/22 02:47:39;;;;;;;11.77;5.50;;;11.50;99.90;;;;;;5025321;28;20055;-81
2022/10/22 02:50:05;;;;;;;10.10;5.72;;;11.40;99.90;;;;;;5047357;28;20040;-82
2022/10/22 02:52:31;;;;;;;11.43;5.57;;;11.40;99.90;;;;;;5039680;28;20042;-82
2022/10/22 02:54:57;;;;;;;12.40;5.72;;;11.40;99.90;;;;;;5041649;28;20042;-82
2022/10/22 02:57:22;;;;;;;11.57;5.22;;;11.40;99.90;;;;;;5030837;28;20045;-82
2022/10/22 02:59:48;;;;;;;7.85;4.93;;;11.30;99.90;;;;;;5026968;28;20111;-82
2022/10/22 03:02:14;;;;;;;8.90;5.03;;;11.30;99.90;;;;;;5039567;28;20077;-82
2022/10/22 03:04:39;;;;;;;11.98;5.80;;;11.20;99.90;;;;;;5039573;28;20083;-82
2022/10/22 03:07:05;;;;;;;14.25;5.93;;;11.20;99.90;;;;;;5042140;28;20811;-82
2022/10/22 03:09:31;;;;;;;8.70;5.45;;;11.30;99.90;;;;;;5040987;28;20045;-82
2022/10/22 03:11:56;;;;;;;13.13;6.05;;;11.20;99.90;;;;;;5028193;28;20030;-82
2022/10/22 03:14:22;;;;;;;10.45;4.97;;;11.30;99.90;;;;;;5034336;28;20041;-82
2022/10/22 03:16:48;;;;;;;9.60;5.63;;;11.20;99.90;;;;;;5037688;28;20061;-81
2022/10/22 03:19:13;;;;;;;15.40;6.72;;;11.30;99.90;;;;;;5035919;28;20064;-82
2022/10/22 03:21:52;;;;;;;14.45;6.25;;;11.30;99.90;;;;;;5043850;28;20085;-82
2022/10/22 03:24:26;;;;;;;13.30;5.43;;;11.30;99.90;;;;;;5045926;28;20056;-81
2022/10/22 03:26:51;;;;;;;11.02;5.68;;;11.30;99.90;;;;;;5033724;28;20065;-81
2022/10/22 03:29:20;;;;;;;12.38;5.95;;;11.30;99.90;;;;;;5042291;28;20098;-81
2022/10/22 03:31:45;;;;;;;10.77;6.30;;;11.30;99.90;;;;;;5038627;28;20037;-82
2022/10/22 03:34:12;;;;;;;13.00;5.90;;;11.40;99.90;;;;;;5034101;28;20068;-82
2022/10/22 03:36:39;;;;;;;12.98;6.55;;;11.40;99.90;;;;;;5038257;28;20049;-82
2022/10/22 03:39:06;;;;;;;12.48;5.50;;;11.40;99.90;;;;;;5034664;28;20141;-82
2022/10/22 03:41:32;;;;;;;16.52;6.60;;;11.30;99.90;;;;;;5045793;28;20054;-81
2022/10/22 03:44:01;;;;;;;11.35;6.38;;;11.30;99.90;;;;;;5045395;28;20123;-82
2022/10/22 03:46:27;;;;;;;11.85;5.95;;;11.30;99.90;;;;;;5022542;28;20496;-81
2022/10/22 03:48:52;;;;;;;20.88;6.18;;;11.30;99.90;;;;;;5031856;28;20071;-82
2022/10/22 03:51:18;;;;;;;23.58;7.30;;;11.30;99.90;;;;;;5039312;28;20088;-81
2022/10/22 03:53:44;;;;;;;20.23;6.25;;;11.20;99.90;;;;;;5029521;28;20488;-81
2022/10/22 03:56:10;;;;;;;11.25;5.88;;;11.20;99.90;;;;;;5036730;28;20049;-81
2022/10/22 03:58:38;;;;;;;13.73;5.22;;;11.20;99.90;;;;;;5026495;28;20054;-82
2022/10/22 04:01:08;;;;;;;11.13;6.55;;;11.20;99.90;;;;;;5043108;28;20063;-82
2022/10/22 04:03:34;;;;;;;15.90;7.40;;;11.20;99.90;;;;;;5041837;28;20562;-81
2022/10/22 04:06:05;;;;;;;11.80;7.05;;;11.20;99.90;;;;;;5028917;28;20045;-82
2022/10/22 04:08:31;;;;;;;9.80;5.75;;;11.20;99.90;;;;;;5049545;28;20072;-81
2022/10/22 04:10:57;;;;;;;11.65;6.38;;;11.20;99.90;;;;;;5043316;28;20037;-83
2022/10/22 04:13:22;;;;;;;10.23;6.70;;;11.20;99.90;;;;;;5019028;28;20060;-81
2022/10/22 04:15:50;;;;;;;11.38;5.97;;;11.20;99.90;;;;;;5032530;28;20057;-81
2022/10/22 04:18:20;;;;;;;11.80;7.10;;;11.20;99.90;;;;;;5065858;28;20069;-81
2022/10/22 04:20:46;;;;;;;13.00;6.43;;;11.20;99.90;;;;;;5032406;28;20060;-81
2022/10/22 04:23:12;;;;;;;16.58;6.80;;;11.20;99.90;;;;;;5014867;28;20037;-82
2022/10/22 04:25:38;;;;;;;16.35;6.85;;;11.20;99.90;;;;;;5040903;28;20377;-81
2022/10/22 04:28:08;;;;;;;15.45;8.02;;;11.10;99.90;;;;;;5039907;28;20140;-82
2022/10/22 04:30:35;;;;;;;17.50;6.90;;;11.10;99.90;;;;;;5041435;28;20095;-82
2022/10/22 04:33:00;;;;;;;11.70;5.80;;;11.10;99.90;;;;;;5042522;28;20120;-82
2022/10/22 04:35:26;;;;;;;18.10;6.63;;;11.10;99.90;;;;;;5035775;28;20061;-81
2022/10/22 04:37:54;;;;;;;11.48;6.65;;;11.10;99.90;;;;;;5031532;28;20562;-82
2022/10/22 04:40:19;;;;;;;23.98;9.50;;;11.10;99.90;;;;;;5027009;28;20045;-82
2022/10/22 04:42:45;;;;;;;14.73;6.85;;;11.00;99.90;;;;;;5039282;28;20048;-82
2022/10/22 04:45:10;;;;;;;13.02;6.63;;;11.00;99.90;;;;;;5047694;28;20083;-81
2022/10/22 04:47:36;;;;;;;13.70;6.43;;;11.00;99.90;;;;;;5024202;28;20057;-81
2022/10/22 04:50:02;;;;;;;17.17;7.00;;;11.00;99.90;;;;;;5032092;28;20040;-81
2022/10/22 04:52:28;;;;;;;14.45;7.25;;;11.00;99.90;;;;;;5018479;28;20045;-81
2022/10/22 04:54:53;;;;;;;12.18;7.13;;;11.00;99.90;;;;;;5043511;28;20080;-81
2022/10/22 04:57:19;;;;;;;18.48;6.70;;;11.00;99.90;;;;;;5058159;28;20112;-82
2022/10/22 04:59:45;;;;;;;12.25;6.38;;;11.00;99.90;;;;;;5012940;28;20055;-81
2022/10/22 05:02:10;;;;;;;14.15;6.88;;;11.10;99.90;;;;;;5042524;28;20050;-81
2022/10/22 05:04:36;;;;;;;13.88;7.00;;;11.10;99.90;;;;;;5043471;28;20049;-81
2022/10/22 05:07:02;;;;;;;10.85;6.55;;;11.10;99.90;;;;;;5049793;28;20045;-82
2022/10/22 05:09:27;;;;;;;9.43;6.30;;;11.10;99.90;;;;;;5044501;28;20092;-81
2022/10/22 05:11:54;;;;;;;12.70;6.15;;;11.10;99.90;;;;;;5044294;28;20052;-81
2022/10/22 05:14:22;;;;;;;12.68;6.35;;;11.10;99.90;;;;;;5044947;28;20044;-81
2022/10/22 05:16:48;;;;;;;13.02;6.53;;;11.10;99.90;;;;;;5035103;28;20538;-81
2022/10/22 05:19:18;;;;;;;19.63;7.32;;;11.20;99.90;;;;;;5041700;28;20056;-81
2022/10/22 05:21:44;;;;;;;12.40;6.50;;;11.20;99.90;;;;;;5042470;28;20053;-82
2022/10/22 05:24:10;;;;;;;13.88;6.25;;;11.20;99.90;;;;;;5038858;28;20049;-81
2022/10/22 05:26:35;;;;;;;14.10;6.55;;;11.20;99.90;;;;;;5047021;28;20076;-82
2022/10/22 05:29:01;;;;;;;18.50;6.75;;;11.20;99.90;;;;;;5043571;28;20079;-82
2022/10/22 05:31:27;;;;;;;17.00;7.55;;;11.20;99.90;;;;;;5044039;28;20049;-81
2022/10/22 05:33:54;;;;;;;13.25;5.97;;;11.20;99.90;;;;;;5048554;28;20042;-81
2022/10/22 05:36:21;;;;;;;14.25;5.88;;;11.20;99.90;;;;;;5044236;28;20743;-82
2022/10/22 05:38:47;;;;;;;14.93;6.75;;;11.20;99.90;;;;;;5046240;28;20056;-82
2022/10/22 05:41:16;;;;;;;20.75;7.80;;;11.20;99.90;;;;;;5047378;28;20067;-82
2022/10/22 05:43:42;;;;;;;15.98;6.82;;;11.20;99.90;;;;;;5047625;28;20605;-81
2022/10/22 05:46:11;;;;;;;14.05;6.38;;;11.20;99.90;;;;;;5047815;28;20101;-82
2022/10/22 05:48:38;;;;;;;18.00;7.03;;;11.20;99.90;;;;;;5045478;28;20123;-81
2022/10/22 05:51:06;;;;;;;13.00;6.13;;;11.20;99.90;;;;;;5039112;28;20056;-81
2022/10/22 05:53:33;;;;;;;16.15;6.82;;;11.20;99.90;;;;;;5047995;28;20481;-82
2022/10/22 05:56:00;;;;;;;11.90;6.18;;;11.30;99.90;;;;;;5031018;28;20071;-82
2022/10/22 05:58:26;;;;;;;12.55;5.82;;;11.30;99.90;;;;;;5029115;28;20144;-82
2022/10/22 06:00:52;;;;;;;13.05;5.30;;;11.30;99.90;;;;;;5034289;28;20072;-82
2022/10/22 06:03:17;;;;;;;13.88;6.18;;;11.30;99.90;;;;;;5024249;28;20051;-83
2022/10/22 06:05:43;;;;;;;11.18;5.60;;;11.30;99.90;;;;;;5043670;28;20079;-83
2022/10/22 06:08:13;;;;;;;8.95;5.63;;;11.30;99.90;;;;;;5037002;28;20049;-83
2022/10/22 06:10:42;;;;;;;10.73;5.97;;;11.30;99.90;;;;;;5044354;28;20400;-83
2022/10/22 06:13:07;;;;;;;12.20;5.25;;;11.30;99.90;;;;;;5038479;28;20045;-83
2022/10/22 06:15:33;;;;;;;14.77;5.80;;;11.40;99.90;;;;;;5044441;28;20106;-82
2022/10/22 06:17:59;;;;;;;12.48;5.85;;;11.40;99.90;;;;;;5040186;28;20152;-83
2022/10/22 06:20:25;;;;;;;8.48;4.88;;;11.50;99.90;;;;;;5030024;28;20053;-83
2022/10/22 06:22:50;;;;;;;9.98;4.68;;;11.50;99.90;;;;;;5021575;28;20087;-83
2022/10/22 06:25:17;;;;;;;9.35;4.35;;;11.50;99.90;;;;;;5042789;28;20037;-83
2022/10/22 06:27:42;;;;;;;10.25;4.05;;;11.60;99.90;;;;;;5046549;28;20037;-84
2022/10/22 06:30:09;;;;;;;16.70;4.95;;;11.60;99.90;;;;;;5029614;28;20214;-82
2022/10/22 06:32:35;;;;;;;10.25;5.57;;;11.70;99.90;;;;;;5027611;28;20496;-81
2022/10/22 06:35:00;;;;;;;10.10;4.88;;;11.70;99.90;;;;;;5042996;28;20045;-81
2022/10/22 06:37:26;;;;;;;12.75;5.20;;;11.80;99.90;;;;;;5041283;28;20484;-82
2022/10/22 06:39:52;;;;;;;13.63;4.35;;;11.80;99.90;;;;;;5044939;28;20408;-80
2022/10/22 06:42:17;;;;;;;8.93;4.57;;;11.80;99.90;;;;;;5016294;28;20085;-80
2022/10/22 06:44:43;;;;;;;8.35;4.10;;;11.80;99.90;;;;;;5043652;28;20042;-81
2022/10/22 06:47:08;;;;;;;11.00;3.83;;;11.90;99.90;;;;;;5033443;28;20057;-81
2022/10/22 06:49:34;;;;;;;7.70;4.22;;;11.90;99.90;;;;;;5043373;28;20060;-81
2022/10/22 06:52:00;;;;;;;13.10;3.65;;;12.00;99.90;;;;;;5041964;28;20100;-80
2022/10/22 06:54:25;;;;;;;9.32;4.38;;;12.00;99.90;;;;;;5042301;28;20045;-80
2022/10/22 06:56:51;;;;;;;11.02;4.90;;;12.00;99.90;;;;;;5047285;28;20033;-81
2022/10/22 06:59:17;;;;;;;11.43;4.90;;;12.10;99.90;;;;;;5027634;28;20052;-81
2022/10/22 07:01:42;;;;;;;14.38;4.30;;;12.20;99.90;;;;;;5042158;28;20105;-80
2022/10/22 07:04:09;;;;;;;12.18;4.00;;;12.30;99.90;;;;;;5038787;28;20049;-81
2022/10/22 07:06:35;;;;;;;11.60;3.95;;;12.30;99.90;;;;;;5037009;28;20056;-80
2022/10/22 07:09:00;;;;;;;11.32;4.28;;;12.40;99.90;;;;;;5037963;28;20100;-81
2022/10/22 07:11:28;;;;;;;10.27;5.55;;;12.50;99.90;;;;;;5037694;28;20056;-81
2022/10/22 07:13:56;;;;;;;7.28;3.67;;;12.60;99.90;;;;;;5033136;28;20040;-81
2022/10/22 07:16:22;;;;;;;5.97;3.47;;;12.60;99.90;;;;;;5058822;28;20057;-82
2022/10/22 07:18:48;;;;;;;8.27;3.90;;;12.70;99.90;;;;;;5059075;28;20060;-82
2022/10/22 07:21:16;;;;;;;8.95;3.53;;;12.80;99.90;;;;;;5044795;28;20046;-82
2022/10/22 07:23:43;;;;;;;11.70;4.22;;;12.90;99.90;;;;;;5042703;28;20042;-82
2022/10/22 07:26:11;;;;;;;7.78;3.60;;;12.90;99.90;;;;;;5049006;28;20051;-81
2022/10/22 07:28:38;;;;;;;7.20;4.50;;;13.00;99.90;;;;;;5040643;28;20053;-82
2022/10/22 07:31:05;;;;;;;10.38;3.53;;;13.00;99.90;;;;;;5038653;28;20053;-81
2022/10/22 07:33:31;;;;;;;10.30;3.95;;;13.10;99.90;;;;;;5020409;28;20053;-81
2022/10/22 07:36:01;;;;;;;8.93;3.70;;;13.10;99.90;;;;;;5044534;28;20045;-81
2022/10/22 07:38:27;;;;;;;11.35;3.67;;;13.10;99.90;;;;;;5050104;28;20059;-82
2022/10/22 07:40:53;;;;;;;8.90;2.97;;;13.10;99.90;;;;;;5033283;28;20053;-82
2022/10/22 07:43:20;;;;;;;8.55;3.85;;;13.10;99.90;;;;;;5038480;28;20710;-82
2022/10/22 07:45:45;;;;;;;11.32;2.97;;;13.10;99.90;;;;;;5045714;28;20048;-81
2022/10/22 07:48:11;;;;;;;8.15;3.80;;;13.00;99.90;;;;;;5038969;28;20045;-82
2022/10/22 07:50:37;;;;;;;10.55;3.85;;;13.10;99.90;;;;;;5058426;28;20079;-81
2022/10/22 07:53:02;;;;;;;11.90;4.95;;;13.10;99.90;;;;;;5046162;28;20053;-81
2022/10/22 07:55:28;;;;;;;14.02;3.88;;;13.10;99.90;;;;;;5031453;28;20076;-81
2022/10/22 07:57:54;;;;;;;10.52;3.50;;;13.20;99.90;;;;;;5037736;28;20099;-82
2022/10/22 08:00:20;;;;;;;6.07;3.60;;;13.20;99.90;;;;;;5023769;28;20053;-81
2022/10/22 08:02:46;;;;;;;8.00;3.90;;;13.10;99.90;;;;;;5037577;28;20045;-80
2022/10/22 08:05:15;;;;;;;7.28;3.22;;;13.20;99.90;;;;;;5022536;28;20813;-81
2022/10/22 08:07:41;;;;;;;8.07;3.20;;;13.20;99.90;;;;;;5039850;28;20053;-81
2022/10/22 08:10:09;;;;;;;15.80;4.13;;;13.20;99.90;;;;;;5052585;28;20080;-81
2022/10/22 08:12:35;;;;;;;11.25;3.72;;;13.20;99.90;;;;;;5035626;28;20807;-81
2022/10/22 08:15:01;;;;;;;9.90;3.72;;;13.20;99.90;;;;;;5034889;28;20191;-81
2022/10/22 08:17:27;;;;;;;8.88;3.25;;;13.30;99.90;;;;;;5039330;28;20053;-81
2022/10/22 08:19:53;;;;;;;6.97;3.70;;;13.30;99.90;;;;;;5044878;28;20143;-81
2022/10/22 08:22:19;;;;;;;8.40;3.63;;;13.30;99.90;;;;;;5033814;28;20033;-81
2022/10/22 08:24:45;;;;;;;6.80;3.47;;;13.30;99.90;;;;;;5043540;28;20044;-81
2022/10/22 08:27:11;;;;;;;7.82;3.25;;;13.30;99.90;;;;;;5058082;28;20045;-81
2022/10/22 08:29:37;;;;;;;8.93;3.50;;;13.30;99.90;;;;;;5056646;28;20049;-80
2022/10/22 08:32:02;;;;;;;8.00;3.40;;;13.40;99.90;;;;;;5045515;28;20107;-81
2022/10/22 08:34:29;;;;;;;8.20;3.22;;;13.40;99.90;;;;;;5041256;28;20535;-81
2022/10/22 08:36:54;;;;;;;8.82;3.28;;;13.50;99.90;;;;;;5032917;28;20037;-81
2022/10/22 08:39:20;;;;;;;7.13;3.47;;;13.50;99.90;;;;;;5043740;28;20114;-81
2022/10/22 08:42:22;;;;;;;9.02;2.92;;;13.60;99.90;;;;;;5040699;28;20154;-81
2022/10/22 08:44:53;;;;;;;11.20;3.28;;;13.70;99.90;;;;;;5042846;28;20045;-82
2022/10/22 08:47:37;;;;;;;11.23;3.35;;;13.80;99.90;;;;;;5053790;28;20117;-82
2022/10/22 08:50:04;;;;;;;13.95;3.38;;;13.90;99.90;;;;;;5054502;28;20061;-81
2022/10/22 08:52:33;;;;;;;8.80;3.42;;;14.00;99.90;;;;;;5039670;28;20538;-81
2022/10/22 08:55:01;;;;;;;16.55;3.15;;;14.10;99.90;;;;;;5029253;28;20041;-81
2022/10/22 08:57:42;;;;;;;7.15;2.78;;;14.20;99.90;;;;;;5031043;28;20037;-82
2022/10/22 09:00:20;;;;;;;10.18;2.78;;;14.20;99.90;;;;;;5042599;28;20482;-81
2022/10/22 09:02:49;;;;;;;5.72;2.40;;;14.30;99.90;;;;;;5044047;28;20558;-82
2022/10/22 09:05:32;;;;;;;9.15;2.33;;;14.40;99.90;;;;;;5040580;28;20041;-81
2022/10/22 09:07:57;;;;;;;7.75;3.20;;;14.60;99.90;;;;;;5056995;28;20045;-81
2022/10/22 09:10:33;;;;;;;7.47;2.97;;;14.80;99.90;;;;;;5024213;28;20057;-82
2022/10/22 09:12:59;;;;;;;9.48;2.72;;;14.90;99.90;;;;;;5041099;28;20072;-82
2022/10/22 09:15:25;;;;;;;6.35;2.40;;;15.00;99.90;;;;;;5040237;28;20053;-82
2022/10/22 09:18:12;;;;;;;17.52;2.47;;;15.10;99.90;;;;;;5024193;28;20057;-81
2022/10/22 09:20:55;;;;;;;3.72;1.70;;;15.20;99.90;;;;;;5040759;28;20121;-81
2022/10/22 09:23:24;;;;;;;4.90;2.33;;;15.20;99.90;;;;;;5040341;28;20049;-81
2022/10/22 09:25:50;;;;;;;6.28;2.67;;;15.20;99.90;;;;;;5035424;28;20076;-81
2022/10/22 09:28:16;;;;;;;6.38;2.53;;;15.20;99.90;;;;;;5039244;28;20132;-82
2022/10/22 09:30:42;;;;;;;5.10;1.75;;;15.30;99.90;;;;;;5043543;28;20076;-81
2022/10/22 09:33:18;;;;;;;7.93;1.90;;;15.30;99.90;;;;;;5058801;28;20136;-81
2022/10/22 09:35:56;;;;;;;10.35;3.03;;;15.30;99.90;;;;;;5056427;28;20041;-82
2022/10/22 09:38:28;;;;;;;5.45;2.08;;;15.20;99.90;;;;;;5059810;28;20049;-81
2022/10/22 09:40:55;;;;;;;7.80;2.83;;;15.30;99.90;;;;;;5054493;28;20567;-82
2022/10/22 09:43:21;;;;;;;6.78;2.17;;;15.40;99.90;;;;;;5030618;28;20059;-82
2022/10/22 09:45:53;;;;;;;5.55;2.70;;;15.40;99.90;;;;;;5053308;28;20400;-81
2022/10/22 09:48:26;;;;;;;4.18;1.52;;;15.40;99.90;;;;;;5053099;28;20049;-81
2022/10/22 09:51:21;;;;;;;3.85;2.20;;;15.40;99.90;;;;;;5048221;28;20114;-81
2022/10/22 09:53:57;;;;;;;5.82;2.00;;;15.40;99.90;;;;;;5038285;28;20057;-81
2022/10/22 09:56:35;;;;;;;7.72;2.00;;;15.30;99.90;;;;;;5047540;28;20119;-81
2022/10/22 09:59:01;;;;;;;7.43;1.95;;;15.30;99.90;;;;;;5018316;28;20041;-82
2022/10/22 10:01:31;;;;;;;12.20;4.50;;;15.30;99.90;;;;;;5050724;28;20040;-81
2022/10/22 10:04:06;;;;;;;6.80;1.88;;;15.30;99.90;;;;;;5059431;28;20069;-82
2022/10/22 10:06:33;;;;;;;3.75;2.00;;;15.40;99.90;;;;;;5042444;28;20057;-82
2022/10/22 10:09:05;;;;;;;3.95;1.80;;;15.40;99.90;;;;;;5053764;28;20076;-81
2022/10/22 10:11:52;;;;;;;8.23;2.40;;;15.50;99.90;;;;;;5036977;28;20059;-81
2022/10/22 10:14:24;;;;;;;9.68;2.30;;;15.50;99.90;;;;;;5039612;28;20368;-81
2022/10/22 10:17:14;;;;;;;13.10;2.15;;;15.70;99.90;;;;;;5035366;28;20113;-80
2022/10/22 10:19:52;;;;;;;7.95;2.10;;;15.80;99.90;;;;;;5041288;28;20098;-82
2022/10/22 10:22:23;;;;;;;7.95;2.65;;;16.00;99.90;;;;;;5040894;28;20056;-81
2022/10/22 10:25:07;;;;;;;4.00;2.30;;;16.20;99.90;;;;;;5038403;28;20068;-82
2022/10/22 10:28:03;;;;;;;5.03;2.35;;;16.20;99.90;;;;;;5039754;28;20514;-83
2022/10/22 10:30:29;;;;;;;4.13;2.05;;;16.20;99.90;;;;;;5051179;28;20157;-81
2022/10/22 10:32:58;;;;;;;9.93;2.53;;;16.20;99.90;;;;;;5047900;28;20404;-81
2022/10/22 10:35:38;;;;;;;6.00;2.17;;;16.10;99.90;;;;;;5061263;28;20052;-81
2022/10/22 10:38:19;;;;;;;6.63;2.70;;;16.10;99.90;;;;;;5058557;28;20041;-82
2022/10/22 10:40:50;;;;;;;7.93;2.40;;;16.00;99.90;;;;;;5038053;28;20072;-82
2022/10/22 10:43:44;;;;;;;9.07;2.43;;;16.00;99.90;;;;;;5038189;28;20049;-82
2022/10/22 10:46:22;;;;;;;4.85;2.22;;;16.00;99.90;;;;;;5021172;28;20111;-82
2022/10/22 10:48:51;;;;;;;8.65;3.35;;;16.00;99.90;;;;;;5023250;28;20045;-82
2022/10/22 10:51:48;;;;;;;6.60;2.53;;;16.00;99.90;;;;;;5030201;28;20053;-82
2022/10/22 10:54:29;;;;;;;7.57;2.70;;;15.90;99.90;;;;;;5040463;28;20107;-82
2022/10/22 10:56:56;;;;;;;8.15;3.50;;;15.90;99.90;;;;;;5045416;28;20053;-82
2022/10/22 10:59:44;;;;;;;7.75;2.30;;;15.80;99.90;;;;;;5041332;28;20049;-83
2022/10/22 11:02:47;;;;;;;6.22;2.97;;;15.80;99.90;;;;;;5034643;28;20091;-85
2022/10/22 11:05:12;;;;;;;10.50;3.00;;;15.70;99.90;;;;;;5051960;28;20057;-86
2022/10/22 11:08:01;;;;;;;6.70;2.83;;;15.60;99.90;;;;;;5057600;28;20092;-85
2022/10/22 11:10:40;;;;;;;7.07;3.08;;;15.60;99.90;;;;;;5046458;28;20108;-85
2022/10/22 11:13:13;;;;;;;9.77;3.63;;;15.60;99.90;;;;;;5028026;28;20037;-85
2022/10/22 11:15:40;;;;;;;7.75;3.95;;;15.50;99.90;;;;;;5024527;28;20049;-85
2022/10/22 11:18:27;;;;;;;11.90;3.33;;;15.50;99.90;;;;;;5015799;28;20072;-85
2022/10/22 11:21:05;;;;;;;8.18;3.72;;;15.50;99.90;;;;;;5043490;28;20103;-84
2022/10/22 11:23:45;;;;;;;7.95;3.70;;;15.50;99.90;;;;;;5021606;28;20049;-84
2022/10/22 11:26:33;;;;;;;6.80;3.40;;;15.50;99.90;;;;;;5042561;28;20052;-84
2022/10/22 11:29:02;;;;;;;9.85;3.58;;;15.60;99.90;;;;;;5028493;28;20045;-84
2022/10/22 11:31:30;;;;;;;8.63;4.15;;;15.60;99.90;;;;;;5024465;28;20049;-84
2022/10/22 11:34:21;;;;;;;8.95;3.28;;;15.70;99.90;;;;;;5046532;28;20042;-83
2022/10/22 11:36:48;;;;;;;13.32;3.50;;;15.70;99.90;;;;;;5040172;28;20100;-82
2022/10/22 11:39:37;;;;;;;8.18;2.85;;;15.80;99.90;;;;;;5049902;28;20049;-82
2022/10/22 11:42:10;;;;;;;7.15;3.15;;;15.80;99.90;;;;;;5036734;28;20064;-83
2022/10/22 11:45:00;;;;;;;12.20;3.80;;;15.90;99.90;;;;;;5021519;28;20045;-83
2022/10/22 11:47:40;;;;;;;6.18;3.00;;;16.10;99.90;;;;;;5041790;28;20045;-83
2022/10/22 11:50:43;;;;;;;5.28;2.80;;;16.20;99.90;;;;;;5021468;28;20103;-83
2022/10/22 11:53:11;;;;;;;6.55;2.47;;;16.30;99.90;;;;;;5023977;28;20081;-83
2022/10/22 11:55:50;;;;;;;13.00;2.85;;;16.40;99.90;;;;;;5026277;28;20049;-84
2022/10/22 11:58:46;;;;;;;5.03;3.45;;;16.40;99.90;;;;;;5042882;28;20078;-84
2022/10/22 12:01:12;;;;;;;12.88;3.22;;;16.40;99.90;;;;;;5062513;28;20057;-83
2022/10/22 12:03:46;;;;;;;7.28;3.10;;;16.50;99.90;;;;;;5044247;28;20049;-83
2022/10/22 12:06:13;;;;;;;8.95;2.78;;;16.50;99.90;;;;;;5056007;28;20057;-83
2022/10/22 12:08:48;;;;;;;5.10;2.60;;;16.50;99.90;;;;;;5041701;28;20060;-84
2022/10/22 12:11:15;;;;;;;4.55;2.55;;;16.50;99.90;;;;;;5040703;28;20104;-84
2022/10/22 12:14:00;;;;;;;5.75;2.90;;;16.40;99.90;;;;;;5049998;28;20041;-83
2022/10/22 12:16:35;;;;;;;7.13;2.85;;;16.40;99.90;;;;;;5060820;28;20053;-84
2022/10/22 12:19:15;;;;;;;8.05;2.70;;;16.30;99.90;;;;;;5042457;28;20055;-84
2022/10/22 12:21:43;;;;;;;5.88;2.22;;;16.30;99.90;;;;;;5044947;28;20041;-84
2022/10/22 12:24:14;;;;;;;7.25;2.30;;;16.20;99.90;;;;;;5060850;28;20053;-83
2022/10/22 12:26:40;;;;;;;6.32;2.72;;;16.30;99.90;;;;;;5042336;28;20053;-84
2022/10/22 12:29:12;;;;;;;18.92;8.55;;;16.30;99.90;;;;;;5038956;28;20055;-83
2022/10/22 12:31:40;;;;;;;7.00;3.33;;;16.40;99.90;;;;;;5030206;28;20110;-83
2022/10/22 12:34:05;;;;;;;6.72;2.45;;;16.40;99.90;;;;;;5059691;28;20037;-83
2022/10/22 12:36:33;;;;;;;6.50;2.33;;;16.50;99.90;;;;;;5044140;28;20052;-83
2022/10/22 12:39:08;;;;;;;9.60;2.47;;;16.50;99.90;;;;;;5048674;28;20065;-83
2022/10/22 12:41:36;;;;;;;8.32;2.38;;;16.60;99.90;;;;;;5036630;28;20065;-83
2022/10/22 12:44:03;;;;;;;4.22;1.98;;;16.60;99.90;;;;;;5061235;28;20045;-93
2022/10/22 12:46:32;;;;;;;9.38;2.10;;;16.60;99.90;;;;;;5048597;28;20060;-94
2022/10/22 12:49:04;;;;;;;5.93;2.03;;;16.60;99.90;;;;;;5046956;28;20104;-95
2022/10/22 12:51:29;;;;;;;;;;;16.60;99.90;;;;;;5062298;28;20412;-94
2022/10/22 12:53:58;;;;;;;11.57;3.90;;;16.60;99.90;;;;;;5061353;28;20481;-94
2022/10/22 12:56:35;;;;;;;3.00;1.90;;;16.60;99.90;;;;;;5062175;28;20037;-95
2022/10/22 12:59:02;;;;;;;4.45;2.17;;;16.60;99.90;;;;;;5061554;28;20079;-95
2022/10/22 13:01:38;;;;;;;2.58;1.60;;;16.70;99.90;;;;;;5045684;28;20077;-94